Latest Coastal Weather Observations for Darwin Harbour

IDD60701

Issued at 2:51 pm CST Friday 27 March 2015 (issued every 10 minutes, with the page automatically refreshed every 10 minutes)

About coastal observations | Map of coastal stations | Coastal observations for NT | Marine services | Other Formats
Station Details ID: 014072 Name: DARWIN NTC AWS Lat: -12.47 Lon: 130.85 Height: 0.0 m
Data from the previous 72 hours. | See also: Recent months for locations in Northern Territory
Date/Time
CST
Temp

°C
Wind Pressure Rain
since 9am
mm
Weather Cloud Vis
km
Sea
Height
m
Swell
Dir
 
Speed
knots
Gust
knots
hPa Trend Height
m
Period
s
Dir
27/02:30pm 27.8 ENE 2 5 1011.4 - - - - - - - - -
27/02:00pm 27.2 ENE 5 8 1011.9 - - - - - - - - -
27/01:30pm 26.8 E 8 10 1012.6 - - - - - - - - -
27/01:00pm 26.3 E 7 9 1013.2 - - - - - - - - -
27/12:30pm 25.6 ENE 8 11 1013.7 - - - - - - - - -
27/12:00pm 25.3 E 10 14 1013.5 - - - - - - - - -
27/11:30am 25.1 E 14 17 1013.4 - - - - - - - - -
27/11:00am 25.6 E 10 13 1013.8 - - - - - - - - -
27/10:30am 25.1 E 12 16 1014.0 - - - - - - - - -
27/10:00am 25.1 ENE 6 10 1014.1 - - - - - - - - -
27/09:30am 24.4 NE 4 6 1014.6 - - - - - - - - -
27/09:00am 24.0 N 6 10 1014.8 - - - - - - - - -
27/08:30am 23.6 NE 3 6 1015.2 - - - - - - - - -
27/08:00am 24.1 NE 5 8 1015.3 - - - - - - - - -
27/07:30am 25.4 SE 3 7 1014.6 - - - - - - - - -
27/07:00am 25.1 NE 1 3 1014.0 - - - - - - - - -
27/06:30am 25.2 N 4 7 1013.3 - - - - - - - - -
27/06:00am 25.2 ENE 4 8 1012.6 - - - - - - - - -
27/05:30am 25.1 ENE 5 10 1012.5 - - - - - - - - -
27/05:00am 25.2 E 9 12 1012.2 - - - - - - - - -
27/04:30am 25.2 E 12 17 1011.3 - - - - - - - - -
27/04:00am 24.9 E 13 17 1011.9 - - - - - - - - -
27/03:30am 25.5 E 14 19 1011.8 - - - - - - - - -
27/03:00am 25.8 E 14 25 1011.8 - - - - - - - - -
27/02:30am 26.2 E 13 16 1011.6 - - - - - - - - -
27/02:00am 26.9 E 10 15 1012.1 - - - - - - - - -
27/01:30am 26.9 E 9 12 1012.1 - - - - - - - - -
27/01:00am 27.1 ENE 5 10 1012.4 - - - - - - - - -
27/12:30am 27.2 ENE 5 9 1012.6 - - - - - - - - -
27/12:00am 27.3 ENE 7 11 1012.9 - - - - - - - - -
 
Date/Time
CST
Temp

°C
Wind Pressure Rain
since 9am
mm
Weather Cloud Vis
km
Sea
Height
m
Swell
Dir
 
Speed
knots
Gust
knots
hPa Trend Height
m
Period
s
Dir
26/11:30pm 26.9 NE 4 7 1012.7 - - - - - - - - -
26/11:00pm 26.9 ENE 2 4 1013.0 - - - - - - - - -
26/10:30pm 26.8 ENE 3 6 1012.6 - - - - - - - - -
26/10:00pm 26.5 ENE 3 5 1012.6 - - - - - - - - -
26/09:30pm 26.6 NE 3 5 1012.5 - - - - - - - - -
26/09:00pm 26.5 NE 2 4 1012.5 - - - - - - - - -
26/08:30pm 26.1 ENE 4 7 1011.9 - - - - - - - - -
26/08:00pm 26.0 NE 6 12 1011.5 - - - - - - - - -
26/07:30pm 25.4 NE 8 14 1011.2 - - - - - - - - -
26/07:00pm 25.8 ENE 10 23 1011.2 - - - - - - - - -
26/06:30pm 26.1 E 9 13 1011.1 - - - - - - - - -
26/06:00pm 24.3 ENE 10 19 1011.0 - - - - - - - - -
26/05:30pm 25.6 NNW 10 19 1010.1 - - - - - - - - -
26/05:00pm 27.3 ENE 5 10 1009.2 - - - - - - - - -
26/04:30pm 26.7 NE 7 13 1009.4 - - - - - - - - -
26/04:00pm 27.4 NNE 9 15 1009.6 - - - - - - - - -
26/03:30pm 28.1 N 8 19 1009.0 - - - - - - - - -
26/03:00pm 30.9 ENE 8 18 1008.5 - - - - - - - - -
26/02:30pm 29.9 NW 5 11 1009.0 - - - - - - - - -
26/02:00pm 30.6 NE 6 13 1009.5 - - - - - - - - -
26/01:30pm 30.8 ENE 6 13 1009.7 - - - - - - - - -
26/01:00pm 30.5 NE 6 15 1010.1 - - - - - - - - -
26/12:30pm 30.7 NNE 8 14 1010.7 - - - - - - - - -
26/12:00pm 30.6 NE 6 17 1011.0 - - - - - - - - -
26/11:30am 30.2 NE 9 17 1011.2 - - - - - - - - -
26/11:00am 29.9 NE 9 16 1011.7 - - - - - - - - -
26/10:30am 29.8 NE 8 16 1011.8 - - - - - - - - -
26/10:00am 29.6 NE 9 17 1011.6 - - - - - - - - -
26/09:30am 29.4 ENE 9 17 1011.6 - - - - - - - - -
26/09:00am 28.6 NE 7 15 1011.2 - - - - - - - - -
26/08:30am 28.1 ENE 7 11 1011.0 - - - - - - - - -
26/08:00am 27.3 ENE 5 9 1010.8 - - - - - - - - -
26/07:30am 26.7 ENE 4 8 1010.7 - - - - - - - - -
26/07:00am 26.1 ENE 9 13 1010.2 - - - - - - - - -
26/06:30am 26.4 ENE 6 10 1010.0 - - - - - - - - -
26/06:00am 26.5 ENE 7 11 1009.7 - - - - - - - - -
26/05:30am 26.6 ENE 5 8 1009.6 - - - - - - - - -
26/05:00am 26.6 ENE 4 6 1009.2 - - - - - - - - -
26/04:30am 26.6 ENE 2 4 1008.9 - - - - - - - - -
26/04:00am 27.0 NE 3 4 1008.8 - - - - - - - - -
26/03:30am 26.8 ENE 2 4 1008.7 - - - - - - - - -
26/03:00am 27.2 NE 2 6 1008.9 - - - - - - - - -
26/02:30am 27.4 NW 3 4 1009.4 - - - - - - - - -
26/02:00am 27.5 N 3 7 1009.5 - - - - - - - - -
26/01:30am 28.4 NNW 3 5 1009.7 - - - - - - - - -
26/01:00am 28.4 NW 2 6 1010.0 - - - - - - - - -
26/12:30am 28.1 NW 3 7 1010.2 - - - - - - - - -
26/12:00am 27.3 WNW 6 9 1010.3 - - - - - - - - -
 
Date/Time
CST
Temp

°C
Wind Pressure Rain
since 9am
mm
Weather Cloud Vis
km
Sea
Height
m
Swell
Dir
 
Speed
knots
Gust
knots
hPa Trend Height
m
Period
s
Dir
25/11:30pm 27.8 W 6 10 1010.4 - - - - - - - - -
25/11:00pm 27.5 W 7 9 1010.4 - - - - - - - - -
25/10:30pm 28.0 W 6 9 1010.2 - - - - - - - - -
25/10:00pm 28.5 W 6 9 1009.9 - - - - - - - - -
25/09:30pm 28.4 WNW 5 8 1009.8 - - - - - - - - -
25/09:00pm 28.6 WNW 5 8 1009.8 - - - - - - - - -
25/08:30pm 28.3 W 5 8 1009.5 - - - - - - - - -
25/08:00pm 28.3 W 6 9 1009.2 - - - - - - - - -
25/07:30pm 28.3 NW 5 10 1009.1 - - - - - - - - -
25/07:00pm 28.3 NW 6 10 1008.6 - - - - - - - - -
25/06:30pm 28.6 NW 7 11 1008.2 - - - - - - - - -
25/06:00pm 28.6 NW 9 13 1007.9 - - - - - - - - -
25/05:30pm 29.2 WNW 8 13 1007.5 - - - - - - - - -
25/05:00pm 28.5 NW 9 14 1007.2 - - - - - - - - -
25/04:30pm 28.9 WNW 10 16 1007.0 - - - - - - - - -
25/04:00pm 28.5 WNW 12 15 1006.7 - - - - - - - - -
25/03:30pm 28.9 NW 7 14 1006.6 - - - - - - - - -
25/03:00pm 28.8 NW 7 14 1006.7 - - - - - - - - -
25/02:30pm 29.2 NNW 6 13 1007.1 - - - - - - - - -
25/02:00pm 28.3 WNW 8 12 1007.5 - - - - - - - - -
25/01:30pm 27.8 WNW 7 10 1007.8 - - - - - - - - -
25/01:00pm 28.0 WNW 6 11 1008.2 - - - - - - - - -
25/12:30pm 26.6 W 6 8 1008.7 - - - - - - - - -
25/12:00pm 26.6 W 4 6 1009.0 - - - - - - - - -
25/11:30am 25.9 W 5 6 1009.5 - - - - - - - - -
25/11:00am 25.6 WSW 5 7 1009.6 - - - - - - - - -
25/10:30am 25.4 SW 5 7 1009.8 - - - - - - - - -
25/10:00am 25.1 SW 9 11 1009.7 - - - - - - - - -
25/09:30am 25.5 SW 5 8 1009.6 - - - - - - - - -
25/09:00am 25.0 WSW 4 6 1009.5 - - - - - - - - -
25/08:30am 24.8 SW 8 12 1009.3 - - - - - - - - -
25/08:00am 24.9 WSW 8 12 1009.0 - - - - - - - - -
25/07:30am 25.0 SW 8 12 1008.7 - - - - - - - - -
25/07:00am 24.9 SW 9 14 1008.4 - - - - - - - - -
25/06:30am 24.8 SW 11 14 1008.0 - - - - - - - - -
25/06:00am 25.1 SW 9 13 1007.8 - - - - - - - - -
25/05:30am 25.3 SW 10 13 1007.4 - - - - - - - - -
25/05:00am 25.3 WSW 9 11 1007.2 - - - - - - - - -
25/04:30am 25.5 WSW 7 10 1007.2 - - - - - - - - -
25/04:00am 25.9 SW 8 12 1007.1 - - - - - - - - -
25/03:30am 26.2 SW 11 14 1007.1 - - - - - - - - -
25/03:00am 26.3 SSW 13 18 1007.2 - - - - - - - - -
25/02:30am 26.4 SSW 14 19 1007.7 - - - - - - - - -
25/02:00am 26.1 SSW 14 18 1008.2 - - - - - - - - -
25/01:30am 26.4 SSW 18 24 1008.3 - - - - - - - - -
25/01:00am 26.5 SSW 16 21 1008.5 - - - - - - - - -
25/12:30am 26.8 SSW 17 23 1009.3 - - - - - - - - -
25/12:00am 26.4 SSW 20 25 1009.6 - - - - - - - - -
 
Date/Time
CST
Temp

°C
Wind Pressure Rain
since 9am
mm
Weather Cloud Vis
km
Sea
Height
m
Swell
Dir
 
Speed
knots
Gust
knots
hPa Trend Height
m
Period
s
Dir
24/11:30pm 26.7 SSW 18 24 1009.5 - - - - - - - - -
24/11:00pm 26.9 S 19 26 1009.6 - - - - - - - - -
24/10:30pm 26.6 SSW 12 18 1009.7 - - - - - - - - -
24/10:00pm 26.9 S 13 17 1009.7 - - - - - - - - -
24/09:30pm 26.9 S 15 18 1009.7 - - - - - - - - -
24/09:00pm 26.6 S 18 25 1009.5 - - - - - - - - -
24/08:30pm 26.3 S 13 17 1009.3 - - - - - - - - -
24/08:00pm 25.3 SE 11 17 1008.8 - - - - - - - - -
24/07:30pm 26.0 ESE 15 19 1008.1 - - - - - - - - -
24/07:00pm 27.4 SE 14 21 1007.6 - - - - - - - - -
24/06:30pm 29.2 S 14 20 1006.8 - - - - - - - - -
24/06:00pm 29.0 SSW 12 15 1006.2 - - - - - - - - -
24/05:30pm 28.0 W 6 9 1006.4 - - - - - - - - -
24/05:00pm 27.4 W 8 11 1006.3 - - - - - - - - -
24/04:30pm 26.9 W 9 11 1006.5 - - - - - - - - -
24/04:00pm 26.6 W 6 9 1006.4 - - - - - - - - -
24/03:30pm 25.8 SE 10 22 1007.3 - - - - - - - - -
24/03:00pm 28.6 ENE 6 11 1007.1 - - - - - - - - -

Other Formats:

Comma delimited format used in spreadsheet applications
http://www.bom.gov.au/fwo/IDD60701/IDD60701.95122.axf

JavaScript Object Notation format (JSON) in row-major order
http://www.bom.gov.au/fwo/IDD60701/IDD60701.95122.json